Informes METAR cercanos


LEVC - Manises, Valencia, ESPAÑA
Distance from station: NNE 72km
Actualización: 20/07/2018 20:00
Algunas nubes
Algunas nubes
 Viento del E
Viento: E 11 km/h
Temperatura: 28°C
Índice de calor: 30°C
Rocío: 21°C
Humedad: 66%
Barómetro: 1010 hPa
Clouds: Algunas nubes
Visibility: 10 km
Cloud details: Algunas nubes 1219 m
2018/07/20 18:00 LEVC 201800Z 08006KT 030V120 9999 FEW040 28/21 Q1010 NOSIG
LEAL - El Altet, Alicante, ESPAÑA
Distance from station: S 70km
Actualización: 20/07/2018 20:00
Despejado
Despejado
 Viento del E
Viento: E 9 km/h
Temperatura: 27°C
Índice de calor: 29°C
Rocío: 21°C
Humedad: 70%
Barómetro: 1010 hPa
Resumen: Despejado
Visibility: Mas de 10 km
2018/07/20 18:00 LEAL 201800Z 10005KT 060V140 CAVOK 27/21 Q1010 NOSIG
 
LELC - San Javier, Murcia, ESPAÑA
Distance from station: SSO 188km
Actualización: 20/07/2018 20:00
Despejado
Despejado
 Viento del SE
Viento: SE 13 km/h
Temperatura: 28°C
Índice de calor: 29°C
Rocío: 20°C
Humedad: 62%
Barómetro: 1009 hPa
Resumen: Despejado
Visibility: Mas de 10 km
2018/07/20 18:00 LELC 201800Z 14007KT 110V180 CAVOK 28/20 Q1009 NOSIG
LEAB - Los Llanos, Albacete, ESPAÑA
Distance from station: O 143km
Actualización: 20/07/2018 20:00
Despejado
Despejado
 Viento del NO
Viento: NO 24 km/h
Temperatura: 32°C
Rocío: 5°C
Humedad: 18%
Barómetro: 1013 hPa
Resumen: Despejado
Visibility: Mas de 10 km
2018/07/20 18:00 LEAB 201800Z 31013KT CAVOK 32/05 Q1013 NOSIG